Time;durP1;ratioP1;P1;durP2;ratioP2;P2;SDS_P1;SDS_P2;PMS_P1;PMS_P2;Temp;Humidity;BMP_temperature;BMP_pressure;BME280_temperature;BME280_humidity;BME280_pressure;Samples;Min_cycle;Max_cycle;Signal;HPM_P1;HPM_P2
2022/01/31 00:04:46;;;;;;;30.97;6.37;;;2.00;99.90;;;;;;10245168;29;20043;-89
2022/01/31 00:09:47;;;;;;;39.63;8.60;;;2.00;99.90;;;;;;10238012;29;20031;-86
2022/01/31 00:14:50;;;;;;;34.57;7.73;;;2.00;99.90;;;;;;10233203;28;20055;-87
2022/01/31 00:19:50;;;;;;;36.57;7.67;;;1.90;99.90;;;;;;10243918;29;20047;-87
2022/01/31 00:24:51;;;;;;;33.17;7.73;;;1.90;99.90;;;;;;10242127;29;20075;-86
2022/01/31 00:29:51;;;;;;;34.37;8.13;;;1.90;99.90;;;;;;10225260;29;20063;-87
2022/01/31 00:41:00;;;;;;;26.33;7.25;;;1.90;99.90;;;;;;10246964;29;20048;-89
2022/01/31 01:03:08;;;;;;;31.63;8.43;;;1.90;99.90;;;;;;10484284;23;20054;-86
2022/01/31 01:25:55;;;;;;;;;;;1.80;99.90;;;;;;12166954;23;20462;-86
2022/01/31 01:30:57;;;;;;;31.73;6.40;;;1.80;99.90;;;;;;10311371;28;20004;-85
2022/01/31 01:35:57;;;;;;;24.60;5.93;;;1.70;99.90;;;;;;10285272;28;20390;-85
2022/01/31 01:41:44;;;;;;;20.93;3.60;;;1.70;99.90;;;;;;10229004;28;20039;-87
2022/01/31 01:46:48;;;;;;;26.75;5.75;;;1.70;99.90;;;;;;10264055;28;20034;-87
2022/01/31 01:51:48;;;;;;;26.50;5.53;;;1.60;99.90;;;;;;10285436;28;20122;-85
2022/01/31 01:56:49;;;;;;;25.33;6.17;;;1.70;99.90;;;;;;10251645;28;20051;-85
2022/01/31 02:01:49;;;;;;;25.00;5.60;;;1.70;99.90;;;;;;10280781;28;20039;-86
2022/01/31 02:06:50;;;;;;;31.00;6.20;;;1.60;99.90;;;;;;10262177;28;20061;-86
2022/01/31 02:11:54;;;;;;;32.13;7.10;;;1.60;99.90;;;;;;10278289;28;20031;-86
2022/01/31 02:22:52;;;;;;;17.50;4.97;;;1.60;99.90;;;;;;10275141;28;20050;-85
2022/01/31 02:27:52;;;;;;;17.13;4.47;;;1.60;99.90;;;;;;10243944;28;20058;-88
2022/01/31 02:32:53;;;;;;;18.67;5.53;;;1.60;99.90;;;;;;10277696;28;20390;-87
2022/01/31 02:37:54;;;;;;;25.87;4.53;;;1.50;99.90;;;;;;10284422;28;20045;-86
2022/01/31 02:48:57;;;;;;;17.30;4.23;;;1.50;99.90;;;;;;10265399;28;20537;-86
2022/01/31 02:53:57;;;;;;;19.37;5.30;;;1.50;99.90;;;;;;10257735;28;20039;-88
2022/01/31 02:58:58;;;;;;;33.10;5.60;;;1.50;99.90;;;;;;10289698;28;20047;-87
2022/01/31 03:03:58;;;;;;;24.70;5.20;;;1.40;99.90;;;;;;10272805;28;20042;-87
2022/01/31 03:08:59;;;;;;;23.23;4.23;;;1.40;99.90;;;;;;10281666;28;20098;-85
2022/01/31 03:13:59;;;;;;;18.57;5.03;;;1.40;99.90;;;;;;10284356;28;20031;-86
2022/01/31 03:19:22;;;;;;;20.83;3.50;;;1.30;99.90;;;;;;10283945;28;20034;-86
2022/01/31 03:24:22;;;;;;;23.33;3.57;;;1.30;99.90;;;;;;10269760;28;20062;-87
2022/01/31 03:29:23;;;;;;;14.33;4.13;;;1.30;99.90;;;;;;10250659;28;20636;-86
2022/01/31 03:34:25;;;;;;;16.67;3.10;;;1.20;99.90;;;;;;10251130;28;20023;-87
2022/01/31 03:39:25;;;;;;;36.53;4.33;;;1.20;99.90;;;;;;10238830;28;20074;-86
2022/01/31 03:44:26;;;;;;;26.60;4.40;;;1.10;99.90;;;;;;10271372;28;20117;-86
2022/01/31 03:49:27;;;;;;;22.37;5.30;;;1.00;99.90;;;;;;10252967;28;20122;-86
2022/01/31 03:54:27;;;;;;;22.93;5.73;;;1.00;99.90;;;;;;10283330;28;20051;-87
2022/01/31 03:59:28;;;;;;;29.93;5.17;;;0.90;99.90;;;;;;10288855;28;20522;-86
2022/01/31 04:04:28;;;;;;;32.63;5.43;;;0.90;99.90;;;;;;10269647;28;20031;-88
2022/01/31 04:42:36;;;;;;;;;;;0.80;99.90;;;;;;10285326;28;20129;-87
2022/01/31 04:47:37;;;;;;;43.50;14.10;;;0.80;99.90;;;;;;10288027;28;20000;-86
2022/01/31 04:52:41;;;;;;;68.03;24.67;;;0.70;99.90;;;;;;10287166;28;20050;-85
2022/01/31 04:57:42;;;;;;;51.73;15.17;;;0.70;99.90;;;;;;10287444;28;20388;-85
2022/01/31 05:02:43;;;;;;;34.63;11.80;;;0.60;99.90;;;;;;10287524;28;20046;-86
2022/01/31 05:07:43;;;;;;;31.97;10.43;;;0.60;99.90;;;;;;10281906;28;20030;-86
2022/01/31 05:12:44;;;;;;;28.87;8.60;;;0.70;99.90;;;;;;10287603;28;20058;-87
2022/01/31 05:17:44;;;;;;;32.97;9.33;;;0.70;99.90;;;;;;10286153;28;20034;-85
2022/01/31 05:22:45;;;;;;;31.87;7.67;;;0.70;99.90;;;;;;10286680;28;20069;-84
2022/01/31 05:27:46;;;;;;;29.90;8.27;;;0.70;99.90;;;;;;10287692;28;20031;-86
2022/01/31 05:32:46;;;;;;;32.47;9.77;;;0.70;99.90;;;;;;10285164;28;20034;-86
2022/01/31 05:37:47;;;;;;;34.63;10.80;;;0.70;99.90;;;;;;10279526;28;20407;-85
2022/01/31 05:42:48;;;;;;;42.40;12.03;;;0.70;99.90;;;;;;10286812;28;20659;-85
2022/01/31 05:47:48;;;;;;;60.00;17.53;;;0.70;99.90;;;;;;10286572;28;20033;-85
2022/01/31 05:52:49;;;;;;;57.87;18.10;;;0.70;99.90;;;;;;10286612;28;20038;-85
2022/01/31 05:57:49;;;;;;;44.07;13.63;;;0.70;99.90;;;;;;10268979;28;20135;-85
2022/01/31 06:02:57;;;;;;;33.87;13.03;;;0.70;99.90;;;;;;10286845;28;20034;-86
2022/01/31 06:07:58;;;;;;;55.70;17.73;;;0.70;99.90;;;;;;10286614;28;20027;-86
2022/01/31 06:12:58;;;;;;;46.10;14.97;;;0.70;99.90;;;;;;10287638;28;20463;-86
2022/01/31 06:17:59;;;;;;;58.77;21.53;;;0.70;99.90;;;;;;10294168;28;20395;-85
2022/01/31 06:22:59;;;;;;;83.27;29.17;;;0.70;99.90;;;;;;10293673;28;20030;-85
2022/01/31 06:28:00;;;;;;;92.80;28.30;;;0.70;99.90;;;;;;10293990;28;20039;-85
2022/01/31 06:33:01;;;;;;;49.70;14.63;;;0.70;99.90;;;;;;10293095;28;20466;-85
2022/01/31 06:38:01;;;;;;;46.03;15.40;;;0.70;99.90;;;;;;10293485;28;20053;-85
2022/01/31 06:43:02;;;;;;;49.73;15.07;;;0.80;99.90;;;;;;10293588;28;20026;-85
2022/01/31 06:48:02;;;;;;;43.37;15.13;;;0.70;99.90;;;;;;10292667;28;20038;-85
2022/01/31 06:53:05;;;;;;;46.57;17.03;;;0.70;99.90;;;;;;10293387;28;20037;-85
2022/01/31 06:58:06;;;;;;;48.37;14.17;;;0.80;99.90;;;;;;10293098;28;20122;-85
2022/01/31 07:03:10;;;;;;;52.50;17.70;;;0.70;99.90;;;;;;10293128;28;20110;-85
2022/01/31 07:08:12;;;;;;;53.80;17.90;;;0.80;99.90;;;;;;10302736;28;20035;-87
2022/01/31 07:13:24;;;;;;;51.80;17.30;;;0.80;99.90;;;;;;10280092;28;20092;-88
2022/01/31 07:18:24;;;;;;;53.00;18.60;;;0.90;99.90;;;;;;10283042;28;20030;-85
2022/01/31 07:23:38;;;;;;;53.93;17.60;;;0.90;99.90;;;;;;10291583;28;20034;-85
2022/01/31 07:28:39;;;;;;;52.80;18.43;;;0.90;99.90;;;;;;10290713;28;20037;-85
2022/01/31 07:33:42;;;;;;;57.77;18.17;;;1.00;99.90;;;;;;10295442;28;20479;-85
2022/01/31 07:38:43;;;;;;;83.87;31.70;;;1.10;99.90;;;;;;10290666;28;20061;-85
2022/01/31 07:43:44;;;;;;;65.30;21.23;;;1.10;99.90;;;;;;10290818;28;20037;-85
2022/01/31 07:48:44;;;;;;;84.90;30.73;;;1.10;99.90;;;;;;10290868;28;20113;-85
2022/01/31 07:53:45;;;;;;;66.57;22.03;;;1.20;99.90;;;;;;10290964;28;20059;-86
2022/01/31 07:58:46;;;;;;;53.77;17.80;;;1.30;99.90;;;;;;10285032;28;20047;-85
2022/01/31 08:03:47;;;;;;;96.13;38.07;;;1.40;99.90;;;;;;10289865;28;20031;-85
2022/01/31 08:08:49;;;;;;;70.00;22.50;;;1.40;99.90;;;;;;10256198;28;20035;-85
2022/01/31 08:13:55;;;;;;;54.93;16.53;;;1.50;99.90;;;;;;10275426;28;20054;-86
2022/01/31 08:18:55;;;;;;;59.58;20.33;;;1.60;99.90;;;;;;10263378;28;20125;-85
2022/01/31 08:23:56;;;;;;;40.23;13.60;;;1.60;99.90;;;;;;10302735;28;20152;-85
2022/01/31 08:29:00;;;;;;;40.80;13.93;;;1.70;99.90;;;;;;10289990;28;20073;-85
2022/01/31 08:34:07;;;;;;;36.63;14.17;;;1.60;99.90;;;;;;10286780;28;20188;-86
2022/01/31 08:39:11;;;;;;;47.47;15.47;;;1.70;99.90;;;;;;10279116;28;20058;-87
2022/01/31 08:44:17;;;;;;;40.77;15.60;;;1.70;99.90;;;;;;10289412;28;20023;-85
2022/01/31 08:49:18;;;;;;;41.00;13.25;;;1.80;99.90;;;;;;10307552;28;20043;-84
2022/01/31 08:54:20;;;;;;;38.47;15.47;;;1.80;99.90;;;;;;10283197;28;20026;-85
2022/01/31 08:59:24;;;;;;;43.90;15.60;;;1.80;99.90;;;;;;10289921;28;20042;-85
2022/01/31 09:04:41;;;;;;;63.43;22.53;;;2.00;99.90;;;;;;10294334;28;20486;-86
2022/01/31 09:09:43;;;;;;;49.10;17.20;;;2.00;99.90;;;;;;10304764;28;20031;-85
2022/01/31 09:20:43;;;;;;;60.40;21.47;;;2.10;99.90;;;;;;10282699;28;20085;-85
2022/01/31 09:25:45;;;;;;;47.23;18.27;;;2.20;99.90;;;;;;10287542;28;20062;-86
2022/01/31 09:37:03;;;;;;;36.87;14.60;;;2.20;99.90;;;;;;10117960;29;20104;-85
2022/01/31 09:54:17;;;;;;;45.90;18.97;;;2.40;99.90;;;;;;10370439;23;20522;-86
2022/01/31 09:59:21;;;;;;;68.87;22.20;;;2.40;99.90;;;;;;10310290;28;20031;-84
2022/01/31 10:04:24;;;;;;;60.33;19.83;;;2.30;99.90;;;;;;10325445;28;20066;-85
2022/01/31 10:09:32;;;;;;;54.10;18.60;;;2.30;99.90;;;;;;10325339;28;20077;-85
2022/01/31 10:20:00;;;;;;;56.20;22.57;;;2.20;99.90;;;;;;10325706;28;20042;-84
2022/01/31 10:25:07;;;;;;;53.63;20.67;;;2.20;99.90;;;;;;10325412;28;20022;-85
2022/01/31 10:30:10;;;;;;;55.33;21.63;;;2.10;99.90;;;;;;10325080;28;20613;-85
2022/01/31 10:35:14;;;;;;;55.70;20.43;;;2.10;99.90;;;;;;10319997;28;20483;-85
2022/01/31 10:45:52;;;;;;;55.67;18.10;;;2.10;99.90;;;;;;10284765;28;20047;-85
2022/01/31 10:56:24;;;;;;;53.33;18.43;;;2.10;99.90;;;;;;10284698;28;20070;-84
2022/01/31 11:01:27;;;;;;;57.70;20.87;;;2.00;99.90;;;;;;10289064;28;20035;-85
2022/01/31 11:07:29;;;;;;;63.63;25.83;;;2.00;99.90;;;;;;10264353;28;20372;-85
2022/01/31 11:40:03;;;;;;;70.53;22.80;;;2.20;99.90;;;;;;12132354;23;20710;-86
2022/01/31 11:45:23;;;;;;;65.93;22.23;;;2.30;99.90;;;;;;10293535;28;20026;-86
2022/01/31 11:50:25;;;;;;;65.97;20.07;;;2.30;99.90;;;;;;10293304;28;20026;-86
2022/01/31 11:55:34;;;;;;;46.97;17.33;;;2.30;99.90;;;;;;10306727;28;20070;-84
2022/01/31 12:00:37;;;;;;;45.37;14.00;;;2.30;99.90;;;;;;10290515;28;20069;-85
2022/01/31 12:05:40;;;;;;;39.50;13.30;;;2.30;99.90;;;;;;10272835;28;20015;-85
2022/01/31 12:10:47;;;;;;;47.97;15.23;;;2.30;99.90;;;;;;10288848;28;20027;-85
2022/01/31 12:26:33;;;;;;;;;;;2.30;99.90;;;;;;10259567;28;20045;-86
2022/01/31 12:32:02;;;;;;;48.80;16.50;;;2.30;99.90;;;;;;10288898;28;20350;-85
2022/01/31 12:37:17;;;;;;;150.50;51.13;;;2.30;99.90;;;;;;10284139;28;20043;-85
2022/01/31 12:43:24;;;;;;;59.37;20.37;;;2.40;99.90;;;;;;10271326;28;20062;-84
2022/01/31 12:48:09;;;;;;;111.13;38.80;;;2.40;99.90;;;;;;10296605;28;20046;-85
2022/01/31 12:53:27;;;;;;;93.83;31.50;;;2.40;99.90;;;;;;10328357;28;20031;-85
2022/01/31 12:58:37;;;;;;;77.47;29.63;;;2.40;99.90;;;;;;10314508;28;20631;-85
2022/01/31 13:03:40;;;;;;;75.67;28.83;;;2.40;99.90;;;;;;10325301;28;20399;-86
2022/01/31 13:08:41;;;;;;;75.70;27.33;;;2.40;99.90;;;;;;10327530;28;20026;-85
2022/01/31 13:13:41;;;;;;;88.00;33.93;;;2.50;99.90;;;;;;10320416;28;20508;-87
2022/01/31 13:18:43;;;;;;;106.47;40.93;;;2.50;99.90;;;;;;10326850;28;20126;-85
2022/01/31 13:23:44;;;;;;;83.93;27.77;;;2.60;99.90;;;;;;10324789;28;20038;-90
2022/01/31 13:28:49;;;;;;;78.50;29.07;;;2.60;99.90;;;;;;10326987;28;20030;-88
2022/01/31 13:34:43;;;;;;;65.13;24.02;;;2.70;99.90;;;;;;10326804;28;20026;-88
2022/01/31 13:58:27;;;;;;;116.50;42.57;;;2.80;99.90;;;;;;10319228;28;20087;-88
2022/01/31 14:09:08;;;;;;;73.70;27.50;;;2.90;99.90;;;;;;12442320;23;20072;-87
2022/01/31 14:26:31;;;;;;;103.37;37.77;;;2.90;99.90;;;;;;10325209;28;20037;-87
2022/01/31 14:31:35;;;;;;;76.67;27.90;;;2.90;99.90;;;;;;10324131;28;20117;-87
2022/01/31 14:36:41;;;;;;;91.67;35.63;;;2.80;99.90;;;;;;10313399;28;20026;-87
2022/01/31 14:41:59;;;;;;;;;;;2.80;99.90;;;;;;10326500;28;20034;-87
2022/01/31 14:47:18;;;;;;;395.50;120.50;;;2.80;99.90;;;;;;10289819;28;20333;-87
2022/01/31 14:52:18;;;;;;;171.70;54.57;;;2.60;99.90;;;;;;10288095;28;20118;-87
2022/01/31 14:57:19;;;;;;;110.33;39.07;;;2.50;99.90;;;;;;10328351;28;20500;-86
2022/01/31 15:02:19;;;;;;;132.20;58.37;;;2.30;99.90;;;;;;10321477;28;20046;-86
2022/01/31 15:07:22;;;;;;;135.47;55.67;;;2.30;99.90;;;;;;10325867;28;20030;-86
2022/01/31 15:12:23;;;;;;;222.73;83.43;;;2.10;99.90;;;;;;10331601;28;20054;-87
2022/01/31 15:17:32;;;;;;;173.17;67.27;;;1.90;99.90;;;;;;10329715;28;20510;-87
2022/01/31 15:22:41;;;;;;;242.07;92.43;;;1.80;99.90;;;;;;10331342;28;20045;-87
2022/01/31 15:27:42;;;;;;;318.17;121.73;;;1.60;99.90;;;;;;10330214;28;20110;-87
2022/01/31 15:32:43;;;;;;;302.47;120.90;;;1.40;99.90;;;;;;10312062;28;20030;-85
2022/01/31 15:37:44;;;;;;;217.60;86.17;;;1.30;99.90;;;;;;10320210;28;20153;-86
2022/01/31 15:42:45;;;;;;;283.73;111.87;;;1.10;99.90;;;;;;10314387;28;20121;-89
2022/01/31 15:47:46;;;;;;;366.00;143.97;;;1.00;99.90;;;;;;10327920;28;20049;-88
2022/01/31 15:52:50;;;;;;;259.23;106.57;;;0.90;99.90;;;;;;10310831;28;20030;-88
2022/01/31 15:57:51;;;;;;;201.40;87.20;;;0.90;99.90;;;;;;10323113;28;20038;-88
2022/01/31 16:02:55;;;;;;;232.40;91.40;;;0.80;99.90;;;;;;10313077;28;20026;-87
2022/01/31 16:08:17;;;;;;;289.03;119.27;;;0.80;99.90;;;;;;10300130;28;20034;-87
2022/01/31 16:13:29;;;;;;;355.30;152.87;;;0.80;99.90;;;;;;10306640;28;20050;-87
2022/01/31 16:18:29;;;;;;;440.87;189.73;;;0.70;99.90;;;;;;10316007;28;20112;-87
2022/01/31 16:23:30;;;;;;;391.73;163.63;;;0.80;99.90;;;;;;10321624;28;20510;-88
2022/01/31 16:28:30;;;;;;;471.67;203.10;;;0.80;99.90;;;;;;10310915;28;20387;-88
2022/01/31 16:33:34;;;;;;;434.90;196.73;;;0.80;99.90;;;;;;10306125;28;20046;-88
2022/01/31 16:38:38;;;;;;;467.63;211.40;;;0.90;99.90;;;;;;10319829;28;20042;-90
2022/01/31 16:43:41;;;;;;;457.60;210.37;;;1.00;99.90;;;;;;10298462;28;20402;-88
2022/01/31 16:48:42;;;;;;;405.50;177.70;;;1.00;99.90;;;;;;10320141;28;20057;-88
2022/01/31 16:53:43;;;;;;;401.97;183.30;;;1.10;99.90;;;;;;10325555;28;20482;-88
2022/01/31 16:58:43;;;;;;;449.37;198.47;;;1.00;99.90;;;;;;10321001;28;20123;-88
2022/01/31 17:03:44;;;;;;;617.77;261.73;;;1.10;99.90;;;;;;10319010;28;20382;-89
2022/01/31 17:08:44;;;;;;;520.40;221.03;;;1.10;99.90;;;;;;10319755;28;20460;-89
2022/01/31 17:14:19;;;;;;;457.00;189.73;;;1.20;99.90;;;;;;10323054;28;20387;-88
2022/01/31 17:19:20;;;;;;;328.70;129.10;;;1.20;99.90;;;;;;10324422;28;20050;-89
2022/01/31 17:24:20;;;;;;;269.90;107.13;;;1.10;99.90;;;;;;10307611;28;20058;-88
2022/01/31 17:29:21;;;;;;;210.10;92.03;;;1.10;99.90;;;;;;10324153;28;20030;-88
2022/01/31 17:34:21;;;;;;;207.73;89.57;;;1.10;99.90;;;;;;10321475;28;20030;-89
2022/01/31 17:39:23;;;;;;;170.07;73.80;;;1.10;99.90;;;;;;10325841;28;20385;-88
2022/01/31 17:44:26;;;;;;;176.17;75.67;;;1.10;99.90;;;;;;10300984;28;20045;-89
2022/01/31 17:49:27;;;;;;;176.00;75.73;;;1.10;99.90;;;;;;10315097;28;20153;-86
2022/01/31 17:54:28;;;;;;;169.77;72.23;;;1.20;99.90;;;;;;10323791;28;20022;-86
2022/01/31 17:59:29;;;;;;;134.17;56.10;;;1.30;99.90;;;;;;10323830;28;20053;-87
2022/01/31 18:04:30;;;;;;;127.50;51.27;;;1.20;99.90;;;;;;10324311;28;20084;-87
2022/01/31 18:09:30;;;;;;;155.13;70.23;;;1.20;99.90;;;;;;10327113;28;20093;-87
2022/01/31 18:14:32;;;;;;;167.10;72.60;;;1.20;99.90;;;;;;10306691;28;20030;-85
2022/01/31 18:19:34;;;;;;;156.37;67.17;;;1.20;99.90;;;;;;10320657;28;20054;-86
2022/01/31 18:24:35;;;;;;;149.53;61.00;;;1.10;99.90;;;;;;10317407;28;20031;-88
2022/01/31 18:29:35;;;;;;;153.33;62.00;;;1.30;99.90;;;;;;10332739;28;20031;-86
2022/01/31 18:34:36;;;;;;;109.57;45.60;;;1.30;99.90;;;;;;10321528;28;20054;-89
2022/01/31 18:39:44;;;;;;;134.07;56.70;;;1.30;99.90;;;;;;10313242;28;20038;-90
2022/01/31 18:44:45;;;;;;;128.47;51.40;;;1.20;99.90;;;;;;10313963;28;20373;-88
2022/01/31 18:49:54;;;;;;;173.83;72.07;;;1.10;99.90;;;;;;10323712;28;20031;-87
2022/01/31 18:54:54;;;;;;;197.10;87.97;;;1.00;99.90;;;;;;10302866;28;20479;-87
2022/01/31 19:00:17;;;;;;;215.20;95.17;;;1.00;99.90;;;;;;10323652;28;20053;-87
2022/01/31 19:05:37;;;;;;;263.70;119.57;;;0.90;99.90;;;;;;10324300;28;20060;-88
2022/01/31 19:10:52;;;;;;;245.17;101.97;;;0.80;99.90;;;;;;10326542;28;20077;-88
2022/01/31 19:15:53;;;;;;;206.23;89.70;;;0.80;99.90;;;;;;10308000;28;20117;-86
2022/01/31 19:21:00;;;;;;;192.83;83.30;;;0.90;99.90;;;;;;10326584;28;20046;-87
2022/01/31 19:26:00;;;;;;;168.03;68.83;;;0.90;99.90;;;;;;10326072;28;20098;-87
2022/01/31 19:31:02;;;;;;;166.10;70.23;;;1.00;99.90;;;;;;10310537;28;20026;-87
2022/01/31 19:36:02;;;;;;;153.90;67.53;;;1.10;99.90;;;;;;10306583;28;20049;-87
2022/01/31 19:46:30;;;;;;;114.00;51.83;;;1.00;99.90;;;;;;10324072;28;20498;-87
2022/01/31 19:51:31;;;;;;;130.40;57.33;;;0.90;99.90;;;;;;10329855;28;20030;-86
2022/01/31 19:56:32;;;;;;;128.27;53.47;;;0.90;99.90;;;;;;10329254;28;20066;-87
2022/01/31 20:01:32;;;;;;;129.03;54.77;;;0.90;99.90;;;;;;10328256;28;20046;-87
2022/01/31 20:06:52;;;;;;;114.73;49.10;;;0.80;99.90;;;;;;10326898;28;20764;-87
2022/01/31 20:11:55;;;;;;;149.97;61.17;;;0.80;99.90;;;;;;10329418;28;20046;-85
2022/01/31 20:16:56;;;;;;;267.50;113.70;;;0.80;99.90;;;;;;10301623;28;20749;-88
2022/01/31 20:21:56;;;;;;;322.03;131.60;;;0.70;99.90;;;;;;10324912;28;20034;-87
2022/01/31 20:27:14;;;;;;;368.67;154.37;;;0.60;99.90;;;;;;10321875;28;20026;-86
2022/01/31 20:38:54;;;;;;;378.60;162.07;;;0.30;99.90;;;;;;10253457;28;20046;-86
2022/01/31 20:43:55;;;;;;;354.20;143.77;;;0.30;99.90;;;;;;10325764;28;20410;-87
2022/01/31 20:48:55;;;;;;;433.90;202.60;;;0.30;99.90;;;;;;10327338;28;20038;-88
2022/01/31 20:53:56;;;;;;;367.83;149.43;;;0.30;99.90;;;;;;10326791;28;20030;-87
2022/01/31 20:58:57;;;;;;;221.10;90.80;;;0.30;99.90;;;;;;10326415;28;20478;-87
2022/01/31 21:03:57;;;;;;;313.50;132.30;;;0.40;99.90;;;;;;10323461;28;20031;-88
2022/01/31 21:08:59;;;;;;;158.73;62.70;;;0.40;99.90;;;;;;10327520;28;20062;-88
2022/01/31 21:14:00;;;;;;;83.03;27.13;;;0.50;99.90;;;;;;10326567;28;20067;-88
2022/01/31 21:19:02;;;;;;;62.63;23.77;;;0.70;99.90;;;;;;10309558;28;20048;-87
2022/01/31 21:30:04;;;;;;;85.47;29.03;;;0.90;99.90;;;;;;10324428;28;20061;-88
2022/01/31 21:35:05;;;;;;;93.13;28.77;;;1.00;99.90;;;;;;10326446;28;20126;-87
2022/01/31 21:40:07;;;;;;;79.47;29.17;;;1.00;99.90;;;;;;10309718;28;20038;-88
2022/01/31 21:45:09;;;;;;;66.10;25.50;;;1.00;99.90;;;;;;10296737;28;20027;-88
2022/01/31 21:50:12;;;;;;;80.50;27.87;;;1.00;99.90;;;;;;10308329;28;20038;-88
2022/01/31 21:55:18;;;;;;;79.33;28.13;;;1.00;99.90;;;;;;10308869;28;20035;-87
2022/01/31 22:00:19;;;;;;;89.28;31.27;;;1.00;99.90;;;;;;10297309;28;20084;-89
2022/01/31 22:05:21;;;;;;;85.23;33.27;;;0.90;99.90;;;;;;10326157;28;20077;-88
2022/01/31 22:10:27;;;;;;;94.47;36.33;;;0.90;99.90;;;;;;10324239;28;20142;-87
2022/01/31 22:15:28;;;;;;;91.80;32.93;;;0.90;99.90;;;;;;10324597;28;20034;-87
2022/01/31 22:20:29;;;;;;;95.20;33.60;;;0.90;99.90;;;;;;10324506;28;20038;-88
2022/01/31 22:25:29;;;;;;;80.77;30.77;;;0.90;99.90;;;;;;10325987;28;20046;-88
2022/01/31 22:30:30;;;;;;;84.03;30.87;;;1.00;99.90;;;;;;10325115;28;20026;-87
2022/01/31 22:35:30;;;;;;;85.00;28.67;;;1.00;99.90;;;;;;10324317;28;20549;-88
2022/01/31 22:40:31;;;;;;;77.47;31.00;;;1.00;99.90;;;;;;10325635;28;20050;-87
2022/01/31 22:45:32;;;;;;;89.33;30.60;;;1.00;99.90;;;;;;10326083;28;20038;-87
2022/01/31 22:50:32;;;;;;;78.97;31.37;;;1.00;99.90;;;;;;10307901;28;20034;-88
2022/01/31 22:55:33;;;;;;;93.27;34.40;;;1.00;99.90;;;;;;10327454;28;20061;-87
2022/01/31 23:00:33;;;;;;;82.47;31.03;;;1.00;99.90;;;;;;10331728;28;20042;-87
2022/01/31 23:05:34;;;;;;;89.50;30.93;;;1.00;99.90;;;;;;10332047;28;20053;-87
2022/01/31 23:10:35;;;;;;;96.73;33.80;;;1.00;99.90;;;;;;10331792;28;20093;-88
2022/01/31 23:15:42;;;;;;;85.57;29.80;;;1.00;99.90;;;;;;10331461;28;20754;-88
2022/01/31 23:42:18;;;;;;;77.80;24.80;;;0.90;99.90;;;;;;10331199;28;20046;-88
